createdAt,value
2022-11-28T00:01:33.288Z,96263.94
2022-11-28T00:03:59.934Z,96257.34
2022-11-28T00:06:27.541Z,96260.81
2022-11-28T00:08:55.590Z,96256.53
2022-11-28T00:11:22.186Z,96255.06
2022-11-28T00:13:49.010Z,96245.56
2022-11-28T00:16:22.072Z,96241.31
2022-11-28T00:18:53.841Z,96240.25
2022-11-28T00:21:20.784Z,96245.19
2022-11-28T00:23:48.553Z,96250.91
2022-11-28T00:26:25.421Z,96233.50
2022-11-28T00:28:52.338Z,96237.56
2022-11-28T00:31:21.778Z,96239.06
2022-11-28T00:33:48.858Z,96238.47
2022-11-28T00:36:15.773Z,96240.47
2022-11-28T00:38:43.225Z,96233.47
2022-11-28T00:41:21.461Z,96230.25
2022-11-28T00:43:50.086Z,96230.84
2022-11-28T00:46:17.665Z,96242.38
2022-11-28T00:48:44.629Z,96231.84
2022-11-28T00:51:12.747Z,96233.97
2022-11-28T00:53:41.987Z,96231.34
2022-11-28T00:56:10.993Z,96233.97
2022-11-28T00:58:38.757Z,96230.31
2022-11-28T01:01:10.982Z,96227.78
2022-11-28T01:03:39.100Z,96228.75
2022-11-28T01:06:06.835Z,96228.31
2022-11-28T01:08:33.924Z,96226.47
2022-11-28T01:11:00.915Z,96224.41
2022-11-28T01:13:27.757Z,96219.00
2022-11-28T01:15:54.482Z,96210.41
2022-11-28T01:18:21.124Z,96208.19
2022-11-28T01:20:47.705Z,96207.19
2022-11-28T01:23:14.299Z,96210.69
2022-11-28T01:25:40.880Z,96204.25
2022-11-28T01:28:07.451Z,96203.66
2022-11-28T01:30:34.485Z,96210.09
2022-11-28T01:33:01.083Z,96203.78
2022-11-28T01:35:27.828Z,96205.56
2022-11-28T01:37:54.654Z,96194.81
2022-11-28T01:40:21.419Z,96204.44
2022-11-28T01:42:48.038Z,96205.19
2022-11-28T01:45:16.909Z,96200.22
2022-11-28T01:47:44.708Z,96196.72
2022-11-28T01:50:12.834Z,96192.00
2022-11-28T01:52:43.074Z,96185.19
2022-11-28T01:55:13.032Z,96188.03
2022-11-28T01:57:40.139Z,96189.31
2022-11-28T02:00:07.853Z,96187.53
2022-11-28T02:02:42.394Z,96183.19
2022-11-28T02:05:09.609Z,96189.91
2022-11-28T02:07:37.643Z,96187.06
2022-11-28T02:10:08.042Z,96182.00
2022-11-28T02:12:55.649Z,96183.66
2022-11-28T02:15:44.116Z,96175.09
2022-11-28T02:18:13.425Z,96173.53
2022-11-28T02:21:08.044Z,96166.09
2022-11-28T02:24:00.742Z,96161.28
2022-11-28T02:27:12.520Z,96164.88
2022-11-28T02:30:01.921Z,96161.88
2022-11-28T02:32:47.363Z,96154.03
2022-11-28T02:35:45.041Z,96154.16
2022-11-28T02:38:14.262Z,96148.34
2022-11-28T02:40:58.326Z,96152.38
2022-11-28T02:43:37.062Z,96151.59
2022-11-28T02:46:30.197Z,96134.50
2022-11-28T02:49:11.894Z,96135.03
2022-11-28T02:51:50.576Z,96138.00
2022-11-28T02:54:18.581Z,96133.53
2022-11-28T02:56:49.737Z,96131.59
2022-11-28T02:59:37.162Z,96133.13
2022-11-28T03:02:15.403Z,96128.25
2022-11-28T03:05:13.174Z,96129.41
2022-11-28T03:08:06.169Z,96113.84
2022-11-28T03:11:02.872Z,96118.34
2022-11-28T03:13:53.193Z,96123.59
2022-11-28T03:16:43.952Z,96121.47
2022-11-28T03:19:27.501Z,96129.38
2022-11-28T03:22:03.008Z,96125.47
2022-11-28T03:24:47.248Z,96121.13
2022-11-28T03:27:21.187Z,96124.91
2022-11-28T03:29:52.998Z,96124.06
2022-11-28T03:32:33.550Z,96119.31
2022-11-28T03:35:06.511Z,96123.66
2022-11-28T03:37:37.664Z,96132.22
2022-11-28T03:40:11.075Z,96132.13
2022-11-28T03:42:49.089Z,96131.03
2022-11-28T03:45:18.604Z,96128.06
2022-11-28T03:47:49.874Z,96122.84
2022-11-28T03:50:35.976Z,96119.63
2022-11-28T03:53:16.530Z,96123.78
2022-11-28T03:55:52.196Z,96124.84
2022-11-28T03:58:32.673Z,96117.03
2022-11-28T04:01:34.438Z,96122.16
2022-11-28T04:04:14.305Z,96114.34
2022-11-28T04:07:02.169Z,96112.31
2022-11-28T04:09:49.629Z,96110.38
2022-11-28T04:12:36.814Z,96107.69
2022-11-28T04:15:22.635Z,96109.75
2022-11-28T04:18:07.715Z,96107.66
2022-11-28T04:20:40.814Z,96108.66
2022-11-28T04:23:10.499Z,96100.63
2022-11-28T04:25:42.423Z,96102.72
2022-11-28T04:28:15.723Z,96098.13
2022-11-28T04:30:46.286Z,96096.78
2022-11-28T04:33:16.225Z,96092.22
2022-11-28T04:35:50.061Z,96083.13
2022-11-28T04:38:17.707Z,96086.00
2022-11-28T04:40:49.692Z,96084.00
2022-11-28T04:43:33.181Z,96077.06
2022-11-28T04:46:05.930Z,96084.41
2022-11-28T04:48:34.613Z,96082.13
2022-11-28T04:51:07.390Z,96080.31
2022-11-28T04:54:15.707Z,96074.75
2022-11-28T04:57:19.608Z,96082.88
2022-11-28T04:59:47.154Z,96078.16
2022-11-28T05:02:16.322Z,96075.66
2022-11-28T05:04:44.684Z,96074.94
2022-11-28T05:07:11.914Z,96078.69
2022-11-28T05:09:38.649Z,96083.50
2022-11-28T05:12:06.023Z,96079.34
2022-11-28T05:14:32.680Z,96071.88
2022-11-28T05:16:59.266Z,96075.09
2022-11-28T05:19:25.888Z,96076.69
2022-11-28T05:21:53.583Z,96075.66
2022-11-28T05:24:22.359Z,96086.03
2022-11-28T05:26:49.362Z,96081.09
2022-11-28T05:29:16.198Z,96086.13
2022-11-28T05:31:43.035Z,96096.72
2022-11-28T05:34:09.754Z,96091.81
2022-11-28T05:36:36.551Z,96090.53
2022-11-28T05:39:03.205Z,96080.34
2022-11-28T05:41:31.625Z,96082.34
2022-11-28T05:43:59.409Z,96087.81
2022-11-28T05:46:27.014Z,96082.41
2022-11-28T05:48:53.627Z,96092.03
2022-11-28T05:51:20.309Z,96096.03
2022-11-28T05:53:46.977Z,96092.28
2022-11-28T05:56:17.595Z,96085.31
2022-11-28T05:58:44.349Z,96085.75
2022-11-28T06:01:19.132Z,96083.19
2022-11-28T06:03:47.438Z,96082.06
2022-11-28T06:06:17.669Z,96089.72
2022-11-28T06:08:45.594Z,96093.31
2022-11-28T06:11:14.610Z,96096.38
2022-11-28T06:13:45.096Z,96095.47
2022-11-28T06:16:17.253Z,96106.69
2022-11-28T06:18:44.183Z,96101.50
2022-11-28T06:21:12.449Z,96098.91
2022-11-28T06:23:40.305Z,96098.59
2022-11-28T06:26:09.133Z,96094.59
2022-11-28T06:28:36.201Z,96106.97
2022-11-28T06:31:03.113Z,96103.84
2022-11-28T06:33:29.911Z,96106.97
2022-11-28T06:36:04.581Z,96111.25
2022-11-28T06:38:32.050Z,96110.84
2022-11-28T06:41:04.241Z,96109.41
2022-11-28T06:43:31.217Z,96117.47
2022-11-28T06:45:58.105Z,96113.59
2022-11-28T06:48:25.428Z,96110.75
2022-11-28T06:50:52.750Z,96105.91
2022-11-28T06:53:19.764Z,96101.84
2022-11-28T06:55:46.870Z,96110.09
2022-11-28T06:58:13.608Z,96107.16
2022-11-28T07:00:40.248Z,96117.78
2022-11-28T07:03:06.861Z,96108.00
2022-11-28T07:05:33.442Z,96104.09
2022-11-28T07:08:00.763Z,96103.03
2022-11-28T07:10:28.269Z,96097.25
2022-11-28T07:13:04.924Z,96086.16
2022-11-28T07:15:32.113Z,96089.31
2022-11-28T07:17:58.701Z,96091.47
2022-11-28T07:20:25.292Z,96091.56
2022-11-28T07:22:51.881Z,96086.78
2022-11-28T07:25:18.573Z,96082.31
2022-11-28T07:27:45.242Z,96084.75
2022-11-28T07:30:12.075Z,96089.44
2022-11-28T07:32:41.714Z,96082.63
2022-11-28T07:35:09.081Z,96088.47
2022-11-28T07:37:36.219Z,96085.72
2022-11-28T07:40:03.956Z,96084.22
2022-11-28T07:42:30.597Z,96078.28
2022-11-28T07:44:57.221Z,96066.88
2022-11-28T07:47:23.850Z,96066.47
2022-11-28T07:49:50.437Z,96060.56
2022-11-28T07:52:17.036Z,96058.38
2022-11-28T07:54:43.701Z,96048.03
2022-11-28T07:57:11.771Z,96043.28
2022-11-28T07:59:39.531Z,96040.97
2022-11-28T08:02:06.786Z,96040.72
2022-11-28T08:04:33.497Z,96039.19
2022-11-28T08:07:00.129Z,96037.34
2022-11-28T08:09:26.762Z,96040.16
2022-11-28T08:11:53.346Z,96028.53
2022-11-28T08:14:20.429Z,96034.22
2022-11-28T08:16:47.188Z,96023.78
2022-11-28T08:19:13.893Z,96026.34
2022-11-28T08:21:40.680Z,96027.34
2022-11-28T08:24:08.230Z,96026.53
2022-11-28T08:26:34.986Z,96021.66
2022-11-28T08:29:03.643Z,96020.50
2022-11-28T08:31:36.018Z,96014.53
2022-11-28T08:34:05.988Z,96015.44
2022-11-28T08:36:32.613Z,96000.88
2022-11-28T08:39:22.920Z,96009.22
2022-11-28T08:41:47.649Z,96002.81
2022-11-28T08:44:14.235Z,95997.44
2022-11-28T08:46:41.130Z,95994.56
2022-11-28T08:49:07.697Z,96003.28
2022-11-28T08:51:34.333Z,95993.97
2022-11-28T08:54:00.914Z,95996.28
2022-11-28T08:56:28.079Z,95993.38
2022-11-28T08:58:55.199Z,95995.66
2022-11-28T09:01:24.441Z,96004.19
2022-11-28T09:03:52.713Z,96005.44
2022-11-28T09:06:21.040Z,96006.69
2022-11-28T09:08:48.305Z,96015.16
2022-11-28T09:11:17.681Z,96016.97
2022-11-28T09:13:45.107Z,96019.38
2022-11-28T09:16:12.539Z,96028.44
2022-11-28T09:18:39.289Z,96031.50
2022-11-28T09:21:11.578Z,96030.22
2022-11-28T09:23:41.036Z,96033.84
2022-11-28T09:26:18.763Z,96034.38
2022-11-28T09:28:45.585Z,96031.03
2022-11-28T09:31:13.896Z,96034.50
2022-11-28T09:33:40.947Z,96038.84
2022-11-28T09:36:09.934Z,96026.00
2022-11-28T09:38:37.016Z,96030.34
2022-11-28T09:41:20.214Z,96029.22
2022-11-28T09:43:53.450Z,96042.09
2022-11-28T09:46:28.073Z,96034.13
2022-11-28T09:48:59.694Z,96044.00
2022-11-28T09:51:34.612Z,96041.66
2022-11-28T09:54:13.350Z,96037.56
2022-11-28T09:56:40.940Z,96053.16
2022-11-28T09:59:30.007Z,96047.41
2022-11-28T10:02:12.209Z,96037.28
2022-11-28T10:04:45.621Z,96030.88
2022-11-28T10:07:50.965Z,96037.31
2022-11-28T10:10:49.529Z,96031.81
2022-11-28T10:13:53.552Z,96031.25
2022-11-28T10:16:35.317Z,96031.56
2022-11-28T10:19:25.568Z,96029.00
2022-11-28T10:22:00.197Z,96023.53
2022-11-28T10:24:37.420Z,96027.03
2022-11-28T10:27:05.732Z,96015.22
2022-11-28T10:29:49.935Z,96001.66
2022-11-28T10:32:36.541Z,96006.06
2022-11-28T10:35:15.354Z,96013.72
2022-11-28T10:37:43.117Z,96002.19
2022-11-28T10:40:29.517Z,95999.63
2022-11-28T10:43:16.290Z,95990.25
2022-11-28T10:46:27.916Z,95992.69
2022-11-28T10:48:57.200Z,95994.56
2022-11-28T10:51:42.346Z,95996.63
2022-11-28T10:54:30.277Z,96002.16
2022-11-28T10:57:15.229Z,95994.56
2022-11-28T10:59:56.678Z,95994.81
2022-11-28T11:02:48.178Z,96004.00
2022-11-28T11:05:20.952Z,96000.97
2022-11-28T11:08:23.782Z,96002.31
2022-11-28T11:10:52.117Z,95990.16
2022-11-28T11:13:24.333Z,95993.38
2022-11-28T11:16:05.248Z,95991.13
2022-11-28T11:18:35.503Z,95993.31
2022-11-28T11:21:24.750Z,95993.34
2022-11-28T11:24:18.328Z,95992.00
2022-11-28T11:26:49.653Z,95992.03
2022-11-28T11:29:29.152Z,95989.53
2022-11-28T11:31:58.322Z,95985.72
2022-11-28T11:34:25.053Z,95985.34
2022-11-28T11:36:51.729Z,95987.06
2022-11-28T11:39:25.706Z,95984.97
2022-11-28T11:42:12.332Z,95977.38
2022-11-28T11:44:39.233Z,95971.94
2022-11-28T11:47:08.396Z,95978.78
2022-11-28T11:49:34.973Z,95978.63
2022-11-28T11:52:05.878Z,95983.41
2022-11-28T11:54:32.653Z,95984.28
2022-11-28T11:57:25.095Z,95986.19
2022-11-28T11:59:53.850Z,95969.16
2022-11-28T12:02:38.175Z,95962.75
2022-11-28T12:05:46.422Z,95962.81
2022-11-28T12:08:38.117Z,95965.06
2022-11-28T12:11:25.772Z,95967.38
2022-11-28T12:13:53.486Z,95973.03
2022-11-28T12:17:25.567Z,95982.69
2022-11-28T12:20:06.279Z,95986.69
2022-11-28T12:23:05.074Z,95990.53
2022-11-28T12:26:01.642Z,95990.13
2022-11-28T12:28:34.325Z,95988.78
2022-11-28T12:31:29.590Z,95997.03
2022-11-28T12:34:14.348Z,96002.06
2022-11-28T12:36:59.739Z,95994.81
2022-11-28T12:39:49.362Z,95993.25
2022-11-28T12:42:34.092Z,95996.97
2022-11-28T12:45:21.858Z,96000.47
2022-11-28T12:48:05.597Z,95996.75
2022-11-28T12:50:36.893Z,95991.94
2022-11-28T12:53:45.748Z,95995.44
2022-11-28T12:56:30.220Z,95990.97
2022-11-28T12:59:19.116Z,95988.47
2022-11-28T13:01:45.667Z,96000.03
2022-11-28T13:04:28.956Z,96004.72
2022-11-28T13:07:22.263Z,96003.31
2022-11-28T13:10:09.195Z,95999.44
2022-11-28T13:12:59.176Z,95997.13
2022-11-28T13:15:37.960Z,95994.38
2022-11-28T13:18:29.495Z,95996.19
2022-11-28T13:20:59.455Z,96002.22
2022-11-28T13:24:06.860Z,95994.13
2022-11-28T13:26:44.101Z,95995.84
2022-11-28T13:29:13.703Z,95994.38
2022-11-28T13:31:58.788Z,95989.63
2022-11-28T13:34:30.082Z,95987.28
2022-11-28T13:40:06.498Z,95995.84
2022-11-28T13:43:07.236Z,95992.41
2022-11-28T13:45:39.161Z,95991.88
2022-11-28T13:48:57.555Z,95989.72
2022-11-28T13:51:31.560Z,95990.22
2022-11-28T13:54:17.154Z,95988.38
2022-11-28T13:56:46.097Z,95989.72
2022-11-28T13:59:19.836Z,95984.69
2022-11-28T14:01:51.178Z,95990.78
2022-11-28T14:04:19.294Z,95993.97
2022-11-28T14:07:03.751Z,95992.13
2022-11-28T14:09:36.052Z,95991.81
2022-11-28T14:12:11.599Z,95997.72
2022-11-28T14:15:00.036Z,95991.59
2022-11-28T14:17:29.583Z,95993.19
2022-11-28T14:20:01.821Z,95998.78
2022-11-28T14:22:34.456Z,95989.69
2022-11-28T14:25:31.729Z,95989.69
2022-11-28T14:28:02.358Z,95988.09
2022-11-28T14:30:34.449Z,95986.50
2022-11-28T14:33:06.298Z,95990.25
2022-11-28T14:35:50.993Z,95996.06
2022-11-28T14:38:35.697Z,95993.94
2022-11-28T14:41:03.782Z,95987.56
2022-11-28T14:43:35.806Z,95983.78
2022-11-28T14:46:33.582Z,95986.41
2022-11-28T14:49:00.333Z,95983.81
2022-11-28T14:51:48.391Z,95993.34
2022-11-28T14:54:23.909Z,95988.56
2022-11-28T14:56:56.669Z,95988.56
2022-11-28T14:59:34.162Z,95987.75
2022-11-28T15:02:08.950Z,95987.50
2022-11-28T15:04:44.225Z,95988.06
2022-11-28T15:07:35.389Z,95995.53
2022-11-28T15:10:32.217Z,95998.19
2022-11-28T15:13:10.900Z,95995.25
2022-11-28T15:15:47.425Z,96004.84
2022-11-28T15:18:14.792Z,95997.16
2022-11-28T15:20:50.900Z,96000.09
2022-11-28T15:23:24.645Z,95997.69
2022-11-28T15:25:55.826Z,96000.34
2022-11-28T15:28:25.440Z,96000.88
2022-11-28T15:30:53.224Z,95998.78
2022-11-28T15:33:21.058Z,95991.28
2022-11-28T15:35:58.413Z,95997.66
2022-11-28T15:38:26.146Z,95993.66
2022-11-28T15:40:54.767Z,95990.19
2022-11-28T15:43:22.660Z,95988.59
2022-11-28T15:45:54.435Z,95986.72
2022-11-28T15:48:40.043Z,95989.06
2022-11-28T15:51:07.588Z,95986.44
2022-11-28T15:53:42.416Z,95989.09
2022-11-28T15:56:15.223Z,95987.50
2022-11-28T15:58:44.285Z,95992.59
2022-11-28T16:01:22.446Z,95989.13
2022-11-28T16:04:07.674Z,95991.81
2022-11-28T16:06:37.077Z,95993.94
2022-11-28T16:09:05.110Z,95988.31
2022-11-28T16:11:34.383Z,95991.00
2022-11-28T16:14:08.723Z,95992.84
2022-11-28T16:16:37.087Z,95994.19
2022-11-28T16:19:15.107Z,95990.22
2022-11-28T16:21:51.236Z,95991.28
2022-11-28T16:24:25.957Z,95986.75
2022-11-28T16:26:59.882Z,95990.22
2022-11-28T16:29:42.683Z,95991.81
2022-11-28T16:32:39.260Z,95985.69
2022-11-28T16:35:11.544Z,95998.75
2022-11-28T16:37:39.337Z,95992.38
2022-11-28T16:40:15.543Z,95986.25
2022-11-28T16:42:42.287Z,95984.34
2022-11-28T16:45:18.057Z,95984.91
2022-11-28T16:47:45.758Z,95976.38
2022-11-28T16:50:20.756Z,95986.22
2022-11-28T16:52:51.476Z,95986.50
2022-11-28T16:55:27.222Z,95981.16
2022-11-28T16:58:15.184Z,95976.34
2022-11-28T17:00:50.424Z,95978.47
2022-11-28T17:03:46.682Z,95976.59
2022-11-28T17:06:23.617Z,95979.84
2022-11-28T17:08:50.617Z,95973.97
2022-11-28T17:11:21.197Z,95984.91
2022-11-28T17:13:47.942Z,95980.91
2022-11-28T17:16:21.122Z,95983.31
2022-11-28T17:18:47.778Z,95979.00
2022-11-28T17:21:16.544Z,95981.41
2022-11-28T17:23:43.296Z,95984.34
2022-11-28T17:26:10.748Z,95978.50
2022-11-28T17:28:37.646Z,95981.19
2022-11-28T17:31:04.302Z,95990.25
2022-11-28T17:33:30.922Z,95979.59
2022-11-28T17:35:59.588Z,95981.22
2022-11-28T17:38:26.339Z,95984.94
2022-11-28T17:40:53.440Z,95981.47
2022-11-28T17:43:21.791Z,95980.13
2022-11-28T17:45:50.662Z,95983.06
2022-11-28T17:48:18.045Z,95978.81
2022-11-28T17:50:47.708Z,95977.75
2022-11-28T17:53:19.425Z,95976.66
2022-11-28T17:55:48.214Z,95985.19
2022-11-28T17:58:18.317Z,95982.00
2022-11-28T18:00:45.246Z,95981.22
2022-11-28T18:03:12.633Z,95979.88
2022-11-28T18:05:42.713Z,95985.47
2022-11-28T18:08:09.422Z,95978.00
2022-11-28T18:10:36.343Z,95974.28
2022-11-28T18:13:03.220Z,95975.88
2022-11-28T18:15:29.901Z,95983.59
2022-11-28T18:17:56.520Z,95971.09
2022-11-28T18:20:23.139Z,95972.16
2022-11-28T18:22:49.801Z,95973.72
2022-11-28T18:25:16.441Z,95966.81
2022-11-28T18:27:43.113Z,95968.94
2022-11-28T18:30:10.220Z,95971.59
2022-11-28T18:32:36.789Z,95965.72
2022-11-28T18:35:03.560Z,95965.72
2022-11-28T18:37:30.534Z,95970.25
2022-11-28T18:39:57.108Z,95965.72
2022-11-28T18:42:24.039Z,95969.41
2022-11-28T18:44:50.620Z,95971.03
2022-11-28T18:47:17.245Z,95974.19
2022-11-28T18:49:44.354Z,95967.31
2022-11-28T18:52:11.149Z,95968.38
2022-11-28T18:54:38.581Z,95970.50
2022-11-28T18:57:08.732Z,95975.31
2022-11-28T18:59:35.460Z,95966.53
2022-11-28T19:02:02.166Z,95974.78
2022-11-28T19:04:28.754Z,95976.34
2022-11-28T19:06:55.354Z,95970.50
2022-11-28T19:09:22.541Z,95979.56
2022-11-28T19:11:49.126Z,95979.59
2022-11-28T19:14:17.909Z,95979.03
2022-11-28T19:16:45.710Z,95978.00
2022-11-28T19:19:12.397Z,95984.94
2022-11-28T19:21:39.074Z,95979.03
2022-11-28T19:24:08.145Z,95982.22
2022-11-28T19:26:35.513Z,95987.56
2022-11-28T19:29:02.762Z,95985.38
2022-11-28T19:31:32.793Z,95982.50
2022-11-28T19:34:17.831Z,95986.19
2022-11-28T19:36:47.512Z,95987.03
2022-11-28T19:39:23.239Z,95982.75
2022-11-28T19:41:51.480Z,95983.81
2022-11-28T19:44:18.209Z,95980.63
2022-11-28T19:46:44.881Z,95982.50
2022-11-28T19:49:18.877Z,95995.28
2022-11-28T19:51:46.328Z,95989.13
2022-11-28T19:54:13.007Z,95989.09
2022-11-28T19:56:39.757Z,95990.41
2022-11-28T19:59:06.462Z,95994.16
2022-11-28T20:01:33.126Z,95999.22
2022-11-28T20:03:59.891Z,95999.22
2022-11-28T20:06:29.515Z,95994.94
2022-11-28T20:09:00.121Z,95996.28
2022-11-28T20:11:30.420Z,95997.59
2022-11-28T20:14:06.590Z,96000.56
2022-11-28T20:16:35.684Z,95990.66
2022-11-28T20:19:03.869Z,95994.88
2022-11-28T20:21:30.631Z,95998.84
2022-11-28T20:23:59.767Z,96002.59
2022-11-28T20:26:27.068Z,96009.25
2022-11-28T20:28:55.711Z,95999.69
2022-11-28T20:31:35.794Z,96007.69
2022-11-28T20:34:03.582Z,96001.31
2022-11-28T20:36:32.045Z,96000.53
2022-11-28T20:38:59.394Z,96002.88
2022-11-28T20:41:27.328Z,96002.91
2022-11-28T20:43:54.202Z,96004.53
2022-11-28T20:46:34.137Z,96007.72
2022-11-28T20:49:03.973Z,96014.91
2022-11-28T20:51:32.143Z,96005.09
2022-11-28T20:54:00.030Z,96008.28
2022-11-28T20:56:29.756Z,96008.56
2022-11-28T20:58:59.391Z,96006.69
2022-11-28T21:01:28.012Z,96012.81
2022-11-28T21:03:54.622Z,96019.75
2022-11-28T21:06:21.714Z,96007.25
2022-11-28T21:08:48.346Z,96012.88
2022-11-28T21:11:43.384Z,96005.94
2022-11-28T21:14:06.026Z,96002.97
2022-11-28T21:16:33.943Z,96006.19
2022-11-28T21:19:07.607Z,96003.53
2022-11-28T21:21:35.393Z,96003.03
2022-11-28T21:24:05.137Z,96000.09
2022-11-28T21:26:37.569Z,96001.16
2022-11-28T21:29:09.207Z,95995.56
2022-11-28T21:31:41.297Z,95999.84
2022-11-28T21:34:07.974Z,95991.84
2022-11-28T21:36:35.049Z,95993.44
2022-11-28T21:39:01.845Z,95991.84
2022-11-28T21:41:31.328Z,95995.84
2022-11-28T21:43:58.934Z,95995.59
2022-11-28T21:46:26.355Z,95991.06
2022-11-28T21:48:53.604Z,95987.34
2022-11-28T21:51:23.027Z,95990.28
2022-11-28T21:53:50.350Z,95984.94
2022-11-28T21:56:17.323Z,95987.09
2022-11-28T21:58:44.348Z,95989.75
2022-11-28T22:01:12.774Z,95986.00
2022-11-28T22:03:40.937Z,95982.28
2022-11-28T22:06:17.220Z,95988.13
2022-11-28T22:08:44.712Z,95986.00
2022-11-28T22:11:13.310Z,95991.59
2022-11-28T22:13:50.945Z,95987.06
2022-11-28T22:16:26.838Z,95989.75
2022-11-28T22:18:55.247Z,95990.00
2022-11-28T22:21:50.554Z,95979.63
2022-11-28T22:24:09.261Z,95987.06
2022-11-28T22:26:36.283Z,95987.34
2022-11-28T22:29:04.180Z,95984.41
2022-11-28T22:31:31.165Z,95991.31
2022-11-28T22:33:57.785Z,95984.91
2022-11-28T22:36:24.803Z,95983.88
2022-11-28T22:38:55.957Z,95992.41
2022-11-28T22:41:28.387Z,95989.44
2022-11-28T22:44:00.329Z,95986.00
2022-11-28T22:46:27.357Z,95984.94
2022-11-28T22:48:53.941Z,95989.75
2022-11-28T22:51:25.179Z,95993.44
2022-11-28T22:53:56.849Z,95989.47
2022-11-28T22:56:23.585Z,95986.53
2022-11-28T22:58:50.284Z,95980.13
2022-11-28T23:01:25.851Z,95982.25
2022-11-28T23:03:54.225Z,95980.16
2022-11-28T23:06:23.549Z,95979.34
2022-11-28T23:08:50.575Z,95984.41
2022-11-28T23:11:25.537Z,95978.53
2022-11-28T23:13:52.734Z,95976.16
2022-11-28T23:16:21.296Z,95968.94
2022-11-28T23:18:49.527Z,95972.13
2022-11-28T23:21:17.485Z,95973.75
2022-11-28T23:23:45.804Z,95970.56
2022-11-28T23:26:18.544Z,95963.63
2022-11-28T23:28:45.394Z,95964.16
2022-11-28T23:31:23.625Z,95964.72
2022-11-28T23:33:50.910Z,95956.44
2022-11-28T23:36:29.274Z,95955.38
2022-11-28T23:38:59.002Z,95955.13
2022-11-28T23:41:26.914Z,95954.59
2022-11-28T23:43:53.909Z,95945.53
2022-11-28T23:46:22.397Z,95956.16
2022-11-28T23:48:49.506Z,95957.78
2022-11-28T23:51:18.141Z,95955.66
2022-11-28T23:53:45.101Z,95957.25
2022-11-28T23:56:18.209Z,95959.91
2022-11-28T23:58:45.026Z,95956.69
